sensor_id;sensor_type;location;lat;lon;timestamp;temperature;humidity
41924;DHT22;27613;48.116;11.656;2023-06-24T00:00:09;16.60;99.90
41924;DHT22;27613;48.116;11.656;2023-06-24T00:02:37;16.50;99.90
41924;DHT22;27613;48.116;11.656;2023-06-24T00:05:03;16.50;99.90
41924;DHT22;27613;48.116;11.656;2023-06-24T00:07:29;16.60;99.90
41924;DHT22;27613;48.116;11.656;2023-06-24T00:09:55;16.50;99.90
41924;DHT22;27613;48.116;11.656;2023-06-24T00:12:21;16.60;99.90
41924;DHT22;27613;48.116;11.656;2023-06-24T00:14:48;16.60;99.90
41924;DHT22;27613;48.116;11.656;2023-06-24T00:17:14;16.60;99.90
41924;DHT22;27613;48.116;11.656;2023-06-24T00:19:42;16.60;99.90
41924;DHT22;27613;48.116;11.656;2023-06-24T00:22:09;16.60;99.90
41924;DHT22;27613;48.116;11.656;2023-06-24T00:24:35;16.50;99.90
41924;DHT22;27613;48.116;11.656;2023-06-24T00:27:00;16.50;99.90
41924;DHT22;27613;48.116;11.656;2023-06-24T00:29:26;16.30;99.90
41924;DHT22;27613;48.116;11.656;2023-06-24T00:31:51;16.20;99.90
41924;DHT22;27613;48.116;11.656;2023-06-24T00:34:17;16.10;99.90
41924;DHT22;27613;48.116;11.656;2023-06-24T00:36:45;16.00;99.90
41924;DHT22;27613;48.116;11.656;2023-06-24T00:39:12;16.00;99.90
41924;DHT22;27613;48.116;11.656;2023-06-24T00:41:38;16.10;99.90
41924;DHT22;27613;48.116;11.656;2023-06-24T00:44:03;16.00;99.90
41924;DHT22;27613;48.116;11.656;2023-06-24T00:46:29;16.00;99.90
41924;DHT22;27613;48.116;11.656;2023-06-24T00:48:59;16.10;99.90
41924;DHT22;27613;48.116;11.656;2023-06-24T00:51:26;16.10;99.90
41924;DHT22;27613;48.116;11.656;2023-06-24T00:53:59;16.10;99.90
41924;DHT22;27613;48.116;11.656;2023-06-24T00:56:31;16.00;99.90
41924;DHT22;27613;48.116;11.656;2023-06-24T00:58:58;16.00;99.90
41924;DHT22;27613;48.116;11.656;2023-06-24T01:01:28;16.00;99.90
41924;DHT22;27613;48.116;11.656;2023-06-24T01:03:53;16.00;99.90
41924;DHT22;27613;48.116;11.656;2023-06-24T01:06:19;16.00;99.90
41924;DHT22;27613;48.116;11.656;2023-06-24T01:08:44;16.00;99.90
41924;DHT22;27613;48.116;11.656;2023-06-24T01:11:16;15.90;99.90
41924;DHT22;27613;48.116;11.656;2023-06-24T01:13:42;16.00;99.90
41924;DHT22;27613;48.116;11.656;2023-06-24T01:16:12;15.90;99.90
41924;DHT22;27613;48.116;11.656;2023-06-24T01:18:52;15.90;99.90
41924;DHT22;27613;48.116;11.656;2023-06-24T01:21:48;15.90;99.90
41924;DHT22;27613;48.116;11.656;2023-06-24T01:27:52;15.80;99.90
41924;DHT22;27613;48.116;11.656;2023-06-24T01:33:22;15.60;99.90
41924;DHT22;27613;48.116;11.656;2023-06-24T01:35:48;15.70;99.90
41924;DHT22;27613;48.116;11.656;2023-06-24T01:38:43;15.70;99.90
41924;DHT22;27613;48.116;11.656;2023-06-24T01:41:06;15.80;99.90
41924;DHT22;27613;48.116;11.656;2023-06-24T01:43:34;15.70;99.90
41924;DHT22;27613;48.116;11.656;2023-06-24T01:46:02;15.70;99.90
41924;DHT22;27613;48.116;11.656;2023-06-24T01:48:34;15.80;99.90
41924;DHT22;27613;48.116;11.656;2023-06-24T01:51:09;15.80;99.90
41924;DHT22;27613;48.116;11.656;2023-06-24T01:53:37;15.80;99.90
41924;DHT22;27613;48.116;11.656;2023-06-24T01:56:06;15.80;99.90
41924;DHT22;27613;48.116;11.656;2023-06-24T01:58:34;15.70;99.90
41924;DHT22;27613;48.116;11.656;2023-06-24T02:01:02;15.80;99.90
41924;DHT22;27613;48.116;11.656;2023-06-24T02:03:28;15.70;99.90
41924;DHT22;27613;48.116;11.656;2023-06-24T02:05:55;15.60;99.90
41924;DHT22;27613;48.116;11.656;2023-06-24T02:08:22;15.70;99.90
41924;DHT22;27613;48.116;11.656;2023-06-24T02:10:50;15.70;99.90
41924;DHT22;27613;48.116;11.656;2023-06-24T02:13:16;15.60;99.90
41924;DHT22;27613;48.116;11.656;2023-06-24T02:15:43;15.50;99.90
41924;DHT22;27613;48.116;11.656;2023-06-24T02:18:09;15.50;99.90
41924;DHT22;27613;48.116;11.656;2023-06-24T02:20:37;15.50;99.90
41924;DHT22;27613;48.116;11.656;2023-06-24T02:23:06;15.50;99.90
41924;DHT22;27613;48.116;11.656;2023-06-24T02:25:33;15.50;99.90
41924;DHT22;27613;48.116;11.656;2023-06-24T02:27:59;15.40;99.90
41924;DHT22;27613;48.116;11.656;2023-06-24T02:30:26;15.40;99.90
41924;DHT22;27613;48.116;11.656;2023-06-24T02:32:52;15.40;99.90
41924;DHT22;27613;48.116;11.656;2023-06-24T02:35:17;15.40;99.90
41924;DHT22;27613;48.116;11.656;2023-06-24T02:37:43;15.40;99.90
41924;DHT22;27613;48.116;11.656;2023-06-24T02:40:09;15.40;99.90
41924;DHT22;27613;48.116;11.656;2023-06-24T02:42:35;15.40;99.90
41924;DHT22;27613;48.116;11.656;2023-06-24T02:45:02;15.40;99.90
41924;DHT22;27613;48.116;11.656;2023-06-24T02:47:28;15.40;99.90
41924;DHT22;27613;48.116;11.656;2023-06-24T02:49:55;15.30;99.90
41924;DHT22;27613;48.116;11.656;2023-06-24T02:52:23;15.30;99.90
41924;DHT22;27613;48.116;11.656;2023-06-24T02:54:49;15.20;99.90
41924;DHT22;27613;48.116;11.656;2023-06-24T02:57:15;15.10;99.90
41924;DHT22;27613;48.116;11.656;2023-06-24T02:59:41;15.20;99.90
41924;DHT22;27613;48.116;11.656;2023-06-24T03:02:07;15.20;99.90
41924;DHT22;27613;48.116;11.656;2023-06-24T03:04:33;15.20;99.90
41924;DHT22;27613;48.116;11.656;2023-06-24T03:07:00;15.20;99.90
41924;DHT22;27613;48.116;11.656;2023-06-24T03:09:33;15.20;99.90
41924;DHT22;27613;48.116;11.656;2023-06-24T03:11:59;15.20;99.90
41924;DHT22;27613;48.116;11.656;2023-06-24T03:14:24;15.10;99.90
41924;DHT22;27613;48.116;11.656;2023-06-24T03:16:50;15.10;99.90
41924;DHT22;27613;48.116;11.656;2023-06-24T03:19:15;15.20;99.90
41924;DHT22;27613;48.116;11.656;2023-06-24T03:21:41;15.10;99.90
41924;DHT22;27613;48.116;11.656;2023-06-24T03:24:07;15.20;99.90
41924;DHT22;27613;48.116;11.656;2023-06-24T03:26:36;15.10;99.90
41924;DHT22;27613;48.116;11.656;2023-06-24T03:29:02;15.20;99.90
41924;DHT22;27613;48.116;11.656;2023-06-24T03:31:27;15.10;99.90
41924;DHT22;27613;48.116;11.656;2023-06-24T03:33:53;15.20;99.90
41924;DHT22;27613;48.116;11.656;2023-06-24T03:36:19;15.20;99.90
41924;DHT22;27613;48.116;11.656;2023-06-24T03:38:45;15.20;99.90
41924;DHT22;27613;48.116;11.656;2023-06-24T03:41:11;15.20;99.90
41924;DHT22;27613;48.116;11.656;2023-06-24T03:43:36;15.20;99.90
41924;DHT22;27613;48.116;11.656;2023-06-24T03:46:02;15.20;99.90
41924;DHT22;27613;48.116;11.656;2023-06-24T03:48:28;15.30;99.90
41924;DHT22;27613;48.116;11.656;2023-06-24T03:50:53;15.30;99.90
41924;DHT22;27613;48.116;11.656;2023-06-24T03:53:19;15.30;99.90
41924;DHT22;27613;48.116;11.656;2023-06-24T03:55:44;15.30;99.90
41924;DHT22;27613;48.116;11.656;2023-06-24T03:58:10;15.40;99.90
41924;DHT22;27613;48.116;11.656;2023-06-24T04:00:36;15.30;99.90
41924;DHT22;27613;48.116;11.656;2023-06-24T04:03:06;15.40;99.90
41924;DHT22;27613;48.116;11.656;2023-06-24T04:05:33;15.40;99.90
41924;DHT22;27613;48.116;11.656;2023-06-24T04:07:58;15.40;99.90
41924;DHT22;27613;48.116;11.656;2023-06-24T04:10:24;15.40;99.90
41924;DHT22;27613;48.116;11.656;2023-06-24T04:12:49;15.40;99.90
41924;DHT22;27613;48.116;11.656;2023-06-24T04:15:15;15.40;99.90
41924;DHT22;27613;48.116;11.656;2023-06-24T04:17:41;15.30;99.90
41924;DHT22;27613;48.116;11.656;2023-06-24T04:20:07;15.40;99.90
41924;DHT22;27613;48.116;11.656;2023-06-24T04:22:39;15.50;99.90
41924;DHT22;27613;48.116;11.656;2023-06-24T04:25:05;15.50;99.90
41924;DHT22;27613;48.116;11.656;2023-06-24T04:27:32;15.50;99.90
41924;DHT22;27613;48.116;11.656;2023-06-24T04:29:58;15.50;99.90
41924;DHT22;27613;48.116;11.656;2023-06-24T04:32:24;15.70;99.90
41924;DHT22;27613;48.116;11.656;2023-06-24T04:34:49;15.60;99.90
41924;DHT22;27613;48.116;11.656;2023-06-24T04:37:15;15.60;99.90
41924;DHT22;27613;48.116;11.656;2023-06-24T04:39:41;15.50;99.90
41924;DHT22;27613;48.116;11.656;2023-06-24T04:42:07;15.50;99.90
41924;DHT22;27613;48.116;11.656;2023-06-24T04:44:32;15.60;99.90
41924;DHT22;27613;48.116;11.656;2023-06-24T04:46:58;15.70;99.90
41924;DHT22;27613;48.116;11.656;2023-06-24T04:49:23;15.70;99.90
41924;DHT22;27613;48.116;11.656;2023-06-24T04:51:49;15.60;99.90
41924;DHT22;27613;48.116;11.656;2023-06-24T04:54:14;15.60;99.90
41924;DHT22;27613;48.116;11.656;2023-06-24T04:56:40;15.70;99.90
41924;DHT22;27613;48.116;11.656;2023-06-24T04:59:06;15.70;99.90
41924;DHT22;27613;48.116;11.656;2023-06-24T05:01:31;15.90;99.90
41924;DHT22;27613;48.116;11.656;2023-06-24T05:03:57;15.90;99.90
41924;DHT22;27613;48.116;11.656;2023-06-24T05:06:23;16.00;99.90
41924;DHT22;27613;48.116;11.656;2023-06-24T05:08:48;15.90;99.90
41924;DHT22;27613;48.116;11.656;2023-06-24T05:11:14;16.00;99.90
41924;DHT22;27613;48.116;11.656;2023-06-24T05:13:40;15.90;99.90
41924;DHT22;27613;48.116;11.656;2023-06-24T05:16:06;16.00;99.90
41924;DHT22;27613;48.116;11.656;2023-06-24T05:18:31;16.30;99.90
41924;DHT22;27613;48.116;11.656;2023-06-24T05:20:57;16.20;99.90
41924;DHT22;27613;48.116;11.656;2023-06-24T05:23:22;16.20;99.90
41924;DHT22;27613;48.116;11.656;2023-06-24T05:25:48;16.30;99.90
41924;DHT22;27613;48.116;11.656;2023-06-24T05:28:14;16.10;99.90
41924;DHT22;27613;48.116;11.656;2023-06-24T05:30:41;16.30;99.90
41924;DHT22;27613;48.116;11.656;2023-06-24T05:33:06;16.30;99.90
41924;DHT22;27613;48.116;11.656;2023-06-24T05:35:32;16.50;99.90
41924;DHT22;27613;48.116;11.656;2023-06-24T05:37:58;16.70;99.90
41924;DHT22;27613;48.116;11.656;2023-06-24T05:40:23;16.90;99.90
41924;DHT22;27613;48.116;11.656;2023-06-24T05:42:49;16.90;99.90
41924;DHT22;27613;48.116;11.656;2023-06-24T05:45:14;16.90;99.90
41924;DHT22;27613;48.116;11.656;2023-06-24T05:47:40;17.10;99.90
41924;DHT22;27613;48.116;11.656;2023-06-24T05:50:06;17.20;99.90
41924;DHT22;27613;48.116;11.656;2023-06-24T05:52:32;17.30;99.90
41924;DHT22;27613;48.116;11.656;2023-06-24T05:54:58;17.10;99.90
41924;DHT22;27613;48.116;11.656;2023-06-24T05:57:23;17.10;99.90
41924;DHT22;27613;48.116;11.656;2023-06-24T05:59:49;17.40;99.90
41924;DHT22;27613;48.116;11.656;2023-06-24T06:02:14;17.50;99.90
41924;DHT22;27613;48.116;11.656;2023-06-24T06:04:40;17.80;99.90
41924;DHT22;27613;48.116;11.656;2023-06-24T06:07:05;17.90;99.90
41924;DHT22;27613;48.116;11.656;2023-06-24T06:09:31;17.70;99.90
41924;DHT22;27613;48.116;11.656;2023-06-24T06:11:56;17.40;99.90
41924;DHT22;27613;48.116;11.656;2023-06-24T06:14:22;17.90;99.90
41924;DHT22;27613;48.116;11.656;2023-06-24T06:16:48;17.90;99.90
41924;DHT22;27613;48.116;11.656;2023-06-24T06:19:13;18.00;99.90
41924;DHT22;27613;48.116;11.656;2023-06-24T06:21:39;18.20;99.90
41924;DHT22;27613;48.116;11.656;2023-06-24T06:24:05;17.80;99.90
41924;DHT22;27613;48.116;11.656;2023-06-24T06:26:30;18.00;99.90
41924;DHT22;27613;48.116;11.656;2023-06-24T06:28:56;18.00;99.90
41924;DHT22;27613;48.116;11.656;2023-06-24T06:31:21;18.30;99.90
41924;DHT22;27613;48.116;11.656;2023-06-24T06:33:48;18.20;99.90
41924;DHT22;27613;48.116;11.656;2023-06-24T06:36:13;18.60;99.00
41924;DHT22;27613;48.116;11.656;2023-06-24T06:38:40;18.90;99.40
41924;DHT22;27613;48.116;11.656;2023-06-24T06:41:06;19.00;96.70
41924;DHT22;27613;48.116;11.656;2023-06-24T06:43:33;19.20;96.10
41924;DHT22;27613;48.116;11.656;2023-06-24T06:45:58;19.10;95.70
41924;DHT22;27613;48.116;11.656;2023-06-24T06:48:24;19.20;95.60
41924;DHT22;27613;48.116;11.656;2023-06-24T06:50:50;19.30;93.90
41924;DHT22;27613;48.116;11.656;2023-06-24T06:53:15;19.30;92.50
41924;DHT22;27613;48.116;11.656;2023-06-24T06:55:41;19.10;93.40
41924;DHT22;27613;48.116;11.656;2023-06-24T06:58:08;19.50;93.40
41924;DHT22;27613;48.116;11.656;2023-06-24T07:00:33;19.50;92.60
41924;DHT22;27613;48.116;11.656;2023-06-24T07:02:59;19.20;91.30
41924;DHT22;27613;48.116;11.656;2023-06-24T07:05:24;19.30;92.10
41924;DHT22;27613;48.116;11.656;2023-06-24T07:07:50;19.80;90.60
41924;DHT22;27613;48.116;11.656;2023-06-24T07:10:16;19.80;84.90
41924;DHT22;27613;48.116;11.656;2023-06-24T07:12:42;19.50;83.70
41924;DHT22;27613;48.116;11.656;2023-06-24T07:15:08;19.70;82.10
41924;DHT22;27613;48.116;11.656;2023-06-24T07:17:34;19.80;82.40
41924;DHT22;27613;48.116;11.656;2023-06-24T07:20:00;19.80;82.60
41924;DHT22;27613;48.116;11.656;2023-06-24T07:22:25;20.30;82.30
41924;DHT22;27613;48.116;11.656;2023-06-24T07:24:51;20.70;80.10
41924;DHT22;27613;48.116;11.656;2023-06-24T07:27:16;20.90;79.10
41924;DHT22;27613;48.116;11.656;2023-06-24T07:29:42;21.20;77.80
41924;DHT22;27613;48.116;11.656;2023-06-24T07:32:07;21.60;76.00
41924;DHT22;27613;48.116;11.656;2023-06-24T07:34:33;21.50;76.30
41924;DHT22;27613;48.116;11.656;2023-06-24T07:36:59;21.50;75.80
41924;DHT22;27613;48.116;11.656;2023-06-24T07:39:24;21.60;73.70
41924;DHT22;27613;48.116;11.656;2023-06-24T07:41:50;21.70;73.30
41924;DHT22;27613;48.116;11.656;2023-06-24T07:44:15;21.80;73.00
41924;DHT22;27613;48.116;11.656;2023-06-24T07:46:41;22.20;71.30
41924;DHT22;27613;48.116;11.656;2023-06-24T07:49:07;21.60;72.30
41924;DHT22;27613;48.116;11.656;2023-06-24T07:51:32;21.50;71.90
41924;DHT22;27613;48.116;11.656;2023-06-24T07:54:00;21.60;71.80
41924;DHT22;27613;48.116;11.656;2023-06-24T07:56:26;21.20;72.90
41924;DHT22;27613;48.116;11.656;2023-06-24T07:58:51;20.80;73.50
41924;DHT22;27613;48.116;11.656;2023-06-24T08:01:17;20.70;74.20
41924;DHT22;27613;48.116;11.656;2023-06-24T08:03:42;20.50;74.60
41924;DHT22;27613;48.116;11.656;2023-06-24T08:06:08;21.20;73.30
41924;DHT22;27613;48.116;11.656;2023-06-24T08:08:33;22.00;70.10
41924;DHT22;27613;48.116;11.656;2023-06-24T08:10:59;22.00;69.80
41924;DHT22;27613;48.116;11.656;2023-06-24T08:13:24;22.30;72.10
41924;DHT22;27613;48.116;11.656;2023-06-24T08:15:50;22.90;69.60
41924;DHT22;27613;48.116;11.656;2023-06-24T08:18:15;22.90;66.80
41924;DHT22;27613;48.116;11.656;2023-06-24T08:20:41;23.40;67.20
41924;DHT22;27613;48.116;11.656;2023-06-24T08:23:07;23.60;67.20
41924;DHT22;27613;48.116;11.656;2023-06-24T08:25:32;23.70;67.10
41924;DHT22;27613;48.116;11.656;2023-06-24T08:27:58;23.50;65.70
41924;DHT22;27613;48.116;11.656;2023-06-24T08:30:24;23.60;66.00
41924;DHT22;27613;48.116;11.656;2023-06-24T08:32:50;23.70;65.80
41924;DHT22;27613;48.116;11.656;2023-06-24T08:35:15;23.20;68.10
41924;DHT22;27613;48.116;11.656;2023-06-24T08:37:41;23.30;66.40
41924;DHT22;27613;48.116;11.656;2023-06-24T08:40:07;23.50;63.80
41924;DHT22;27613;48.116;11.656;2023-06-24T08:42:33;23.20;64.40
41924;DHT22;27613;48.116;11.656;2023-06-24T08:44:58;23.30;64.40
41924;DHT22;27613;48.116;11.656;2023-06-24T08:47:24;23.30;64.20
41924;DHT22;27613;48.116;11.656;2023-06-24T08:49:55;23.70;65.40
41924;DHT22;27613;48.116;11.656;2023-06-24T08:52:29;24.40;63.50
41924;DHT22;27613;48.116;11.656;2023-06-24T08:54:55;24.10;61.60
41924;DHT22;27613;48.116;11.656;2023-06-24T08:57:23;24.20;62.90
41924;DHT22;27613;48.116;11.656;2023-06-24T08:59:49;24.00;63.10
41924;DHT22;27613;48.116;11.656;2023-06-24T09:02:14;23.50;63.10
41924;DHT22;27613;48.116;11.656;2023-06-24T09:04:40;23.10;66.00
41924;DHT22;27613;48.116;11.656;2023-06-24T09:07:06;23.30;64.90
41924;DHT22;27613;48.116;11.656;2023-06-24T09:09:32;23.70;63.90
41924;DHT22;27613;48.116;11.656;2023-06-24T09:11:59;24.20;63.10
41924;DHT22;27613;48.116;11.656;2023-06-24T09:14:26;24.50;62.60
41924;DHT22;27613;48.116;11.656;2023-06-24T09:17:01;24.40;61.80
41924;DHT22;27613;48.116;11.656;2023-06-24T09:19:28;24.10;60.90
41924;DHT22;27613;48.116;11.656;2023-06-24T09:22:08;24.80;63.10
41924;DHT22;27613;48.116;11.656;2023-06-24T09:24:34;25.50;60.20
41924;DHT22;27613;48.116;11.656;2023-06-24T09:27:01;25.40;59.90
41924;DHT22;27613;48.116;11.656;2023-06-24T09:29:31;25.70;58.30
41924;DHT22;27613;48.116;11.656;2023-06-24T09:31:57;25.20;57.40
41924;DHT22;27613;48.116;11.656;2023-06-24T09:34:24;25.30;59.30
41924;DHT22;27613;48.116;11.656;2023-06-24T09:36:54;26.40;58.30
41924;DHT22;27613;48.116;11.656;2023-06-24T09:39:20;27.20;55.40
41924;DHT22;27613;48.116;11.656;2023-06-24T09:41:59;27.90;56.80
41924;DHT22;27613;48.116;11.656;2023-06-24T09:44:26;28.60;55.20
41924;DHT22;27613;48.116;11.656;2023-06-24T09:46:52;28.90;52.20
41924;DHT22;27613;48.116;11.656;2023-06-24T09:49:18;28.00;54.00
41924;DHT22;27613;48.116;11.656;2023-06-24T09:51:45;27.30;52.20
41924;DHT22;27613;48.116;11.656;2023-06-24T09:54:13;28.50;53.70
41924;DHT22;27613;48.116;11.656;2023-06-24T09:56:49;29.50;53.30
41924;DHT22;27613;48.116;11.656;2023-06-24T09:59:15;30.40;51.20
41924;DHT22;27613;48.116;11.656;2023-06-24T10:01:44;31.30;49.80
41924;DHT22;27613;48.116;11.656;2023-06-24T10:04:17;31.90;49.00
41924;DHT22;27613;48.116;11.656;2023-06-24T10:06:43;31.50;46.90
41924;DHT22;27613;48.116;11.656;2023-06-24T10:09:09;32.00;46.40
41924;DHT22;27613;48.116;11.656;2023-06-24T10:11:36;30.20;47.60
41924;DHT22;27613;48.116;11.656;2023-06-24T10:14:01;31.90;47.50
41924;DHT22;27613;48.116;11.656;2023-06-24T10:16:27;33.10;46.60
41924;DHT22;27613;48.116;11.656;2023-06-24T10:19:03;33.10;45.20
41924;DHT22;27613;48.116;11.656;2023-06-24T10:24:13;31.70;46.80
41924;DHT22;27613;48.116;11.656;2023-06-24T10:26:40;32.10;45.00
41924;DHT22;27613;48.116;11.656;2023-06-24T10:37:02;30.70;47.80
41924;DHT22;27613;48.116;11.656;2023-06-24T10:39:50;29.70;50.90
41924;DHT22;27613;48.116;11.656;2023-06-24T10:44:52;30.40;49.10
41924;DHT22;27613;48.116;11.656;2023-06-24T10:47:18;30.70;48.60
41924;DHT22;27613;48.116;11.656;2023-06-24T10:49:45;30.70;48.30
41924;DHT22;27613;48.116;11.656;2023-06-24T10:52:11;29.90;49.00
41924;DHT22;27613;48.116;11.656;2023-06-24T10:54:40;29.40;50.40
41924;DHT22;27613;48.116;11.656;2023-06-24T10:57:07;28.00;53.50
41924;DHT22;27613;48.116;11.656;2023-06-24T10:59:46;26.90;55.40
41924;DHT22;27613;48.116;11.656;2023-06-24T11:02:26;26.50;56.70
41924;DHT22;27613;48.116;11.656;2023-06-24T11:04:53;26.40;54.20
41924;DHT22;27613;48.116;11.656;2023-06-24T11:07:21;26.30;55.10
41924;DHT22;27613;48.116;11.656;2023-06-24T11:09:51;26.30;55.90
41924;DHT22;27613;48.116;11.656;2023-06-24T11:12:17;28.80;54.40
41924;DHT22;27613;48.116;11.656;2023-06-24T11:14:43;30.80;49.40
41924;DHT22;27613;48.116;11.656;2023-06-24T11:17:09;32.40;47.10
41924;DHT22;27613;48.116;11.656;2023-06-24T11:19:35;33.60;44.60
41924;DHT22;27613;48.116;11.656;2023-06-24T11:22:05;34.60;44.80
41924;DHT22;27613;48.116;11.656;2023-06-24T11:24:31;34.70;42.60
41924;DHT22;27613;48.116;11.656;2023-06-24T11:26:56;34.10;42.50
41924;DHT22;27613;48.116;11.656;2023-06-24T11:29:23;33.30;43.00
41924;DHT22;27613;48.116;11.656;2023-06-24T11:31:49;31.50;45.60
41924;DHT22;27613;48.116;11.656;2023-06-24T11:34:15;31.50;46.10
41924;DHT22;27613;48.116;11.656;2023-06-24T11:36:41;32.30;45.60
41924;DHT22;27613;48.116;11.656;2023-06-24T11:39:06;31.80;45.40
41924;DHT22;27613;48.116;11.656;2023-06-24T11:41:32;32.50;45.10
41924;DHT22;27613;48.116;11.656;2023-06-24T11:43:58;33.70;44.40
41924;DHT22;27613;48.116;11.656;2023-06-24T11:46:25;34.60;43.80
41924;DHT22;27613;48.116;11.656;2023-06-24T11:48:51;36.30;42.00
41924;DHT22;27613;48.116;11.656;2023-06-24T11:51:17;37.40;40.40
41924;DHT22;27613;48.116;11.656;2023-06-24T11:53:43;37.40;40.30
41924;DHT22;27613;48.116;11.656;2023-06-24T11:56:10;37.90;39.80
41924;DHT22;27613;48.116;11.656;2023-06-24T11:58:35;37.80;40.20
41924;DHT22;27613;48.116;11.656;2023-06-24T12:01:01;38.50;38.80
41924;DHT22;27613;48.116;11.656;2023-06-24T12:03:28;36.90;39.00
41924;DHT22;27613;48.116;11.656;2023-06-24T12:05:54;36.90;40.10
41924;DHT22;27613;48.116;11.656;2023-06-24T12:08:20;35.90;39.20
41924;DHT22;27613;48.116;11.656;2023-06-24T12:10:48;36.70;39.70
41924;DHT22;27613;48.116;11.656;2023-06-24T12:13:13;37.30;39.50
41924;DHT22;27613;48.116;11.656;2023-06-24T12:15:39;35.70;39.40
41924;DHT22;27613;48.116;11.656;2023-06-24T12:18:05;35.40;40.20
41924;DHT22;27613;48.116;11.656;2023-06-24T12:20:31;33.60;40.60
41924;DHT22;27613;48.116;11.656;2023-06-24T12:22:57;30.50;43.10
41924;DHT22;27613;48.116;11.656;2023-06-24T12:25:23;28.90;45.80
41924;DHT22;27613;48.116;11.656;2023-06-24T12:27:49;28.60;46.90
41924;DHT22;27613;48.116;11.656;2023-06-24T12:30:15;30.50;45.80
41924;DHT22;27613;48.116;11.656;2023-06-24T12:32:42;30.60;47.10
41924;DHT22;27613;48.116;11.656;2023-06-24T12:35:08;31.80;44.50
41924;DHT22;27613;48.116;11.656;2023-06-24T12:37:37;31.40;44.80
41924;DHT22;27613;48.116;11.656;2023-06-24T12:40:04;32.50;44.40
41924;DHT22;27613;48.116;11.656;2023-06-24T12:42:29;31.80;44.50
41924;DHT22;27613;48.116;11.656;2023-06-24T12:44:55;32.90;43.60
41924;DHT22;27613;48.116;11.656;2023-06-24T12:47:21;33.80;42.70
41924;DHT22;27613;48.116;11.656;2023-06-24T12:49:47;32.70;43.30
41924;DHT22;27613;48.116;11.656;2023-06-24T12:52:14;34.60;43.20
41924;DHT22;27613;48.116;11.656;2023-06-24T12:54:40;36.40;41.40
41924;DHT22;27613;48.116;11.656;2023-06-24T12:57:05;36.70;40.50
41924;DHT22;27613;48.116;11.656;2023-06-24T12:59:31;36.60;40.00
41924;DHT22;27613;48.116;11.656;2023-06-24T13:01:57;37.10;40.20
41924;DHT22;27613;48.116;11.656;2023-06-24T13:04:22;37.10;38.80
41924;DHT22;27613;48.116;11.656;2023-06-24T13:06:50;36.30;39.10
41924;DHT22;27613;48.116;11.656;2023-06-24T13:09:16;36.70;39.50
41924;DHT22;27613;48.116;11.656;2023-06-24T13:11:42;36.50;39.00
41924;DHT22;27613;48.116;11.656;2023-06-24T13:14:08;37.50;38.70
41924;DHT22;27613;48.116;11.656;2023-06-24T13:16:35;37.60;38.00
41924;DHT22;27613;48.116;11.656;2023-06-24T13:19:01;36.90;36.90
41924;DHT22;27613;48.116;11.656;2023-06-24T13:21:27;35.40;37.80
41924;DHT22;27613;48.116;11.656;2023-06-24T13:23:52;33.70;39.80
41924;DHT22;27613;48.116;11.656;2023-06-24T13:26:18;31.70;43.30
41924;DHT22;27613;48.116;11.656;2023-06-24T13:28:43;30.10;45.00
41924;DHT22;27613;48.116;11.656;2023-06-24T13:31:09;29.30;46.30
41924;DHT22;27613;48.116;11.656;2023-06-24T13:33:35;28.50;48.90
41924;DHT22;27613;48.116;11.656;2023-06-24T13:36:00;29.10;47.70
41924;DHT22;27613;48.116;11.656;2023-06-24T13:38:27;30.50;45.60
41924;DHT22;27613;48.116;11.656;2023-06-24T13:40:53;32.50;43.60
41924;DHT22;27613;48.116;11.656;2023-06-24T13:43:19;33.90;42.00
41924;DHT22;27613;48.116;11.656;2023-06-24T13:45:44;35.20;41.90
41924;DHT22;27613;48.116;11.656;2023-06-24T13:48:10;35.60;40.00
41924;DHT22;27613;48.116;11.656;2023-06-24T13:50:36;36.70;40.50
41924;DHT22;27613;48.116;11.656;2023-06-24T13:53:01;37.90;38.80
41924;DHT22;27613;48.116;11.656;2023-06-24T13:55:27;37.10;38.50
41924;DHT22;27613;48.116;11.656;2023-06-24T13:57:52;37.90;38.40
41924;DHT22;27613;48.116;11.656;2023-06-24T14:00:19;36.90;39.50
41924;DHT22;27613;48.116;11.656;2023-06-24T14:02:45;36.10;40.00
41924;DHT22;27613;48.116;11.656;2023-06-24T14:05:11;36.20;39.60
41924;DHT22;27613;48.116;11.656;2023-06-24T14:07:36;37.10;38.40
41924;DHT22;27613;48.116;11.656;2023-06-24T14:10:02;38.50;37.30
41924;DHT22;27613;48.116;11.656;2023-06-24T14:12:27;39.30;36.90
41924;DHT22;27613;48.116;11.656;2023-06-24T14:14:53;39.10;35.00
41924;DHT22;27613;48.116;11.656;2023-06-24T14:17:19;38.40;35.50
41924;DHT22;27613;48.116;11.656;2023-06-24T14:19:44;36.90;37.10
41924;DHT22;27613;48.116;11.656;2023-06-24T14:22:11;36.20;38.10
41924;DHT22;27613;48.116;11.656;2023-06-24T14:24:37;34.90;38.70
41924;DHT22;27613;48.116;11.656;2023-06-24T14:27:05;33.70;40.20
41924;DHT22;27613;48.116;11.656;2023-06-24T14:29:31;34.10;40.70
41924;DHT22;27613;48.116;11.656;2023-06-24T14:31:56;32.80;41.00
41924;DHT22;27613;48.116;11.656;2023-06-24T14:34:22;31.70;41.90
41924;DHT22;27613;48.116;11.656;2023-06-24T14:36:48;32.60;41.90
41924;DHT22;27613;48.116;11.656;2023-06-24T14:39:15;32.70;41.00
41924;DHT22;27613;48.116;11.656;2023-06-24T14:41:43;33.00;40.70
41924;DHT22;27613;48.116;11.656;2023-06-24T14:44:10;34.50;39.20
41924;DHT22;27613;48.116;11.656;2023-06-24T14:46:35;35.20;38.70
41924;DHT22;27613;48.116;11.656;2023-06-24T14:49:01;35.40;38.40
41924;DHT22;27613;48.116;11.656;2023-06-24T14:51:27;36.20;36.90
41924;DHT22;27613;48.116;11.656;2023-06-24T14:53:53;37.50;37.50
41924;DHT22;27613;48.116;11.656;2023-06-24T14:56:18;37.60;37.30
41924;DHT22;27613;48.116;11.656;2023-06-24T14:58:44;37.80;36.00
41924;DHT22;27613;48.116;11.656;2023-06-24T15:01:09;37.80;35.80
41924;DHT22;27613;48.116;11.656;2023-06-24T15:03:35;38.50;36.70
41924;DHT22;27613;48.116;11.656;2023-06-24T15:06:01;36.90;37.50
41924;DHT22;27613;48.116;11.656;2023-06-24T15:08:26;35.40;38.30
41924;DHT22;27613;48.116;11.656;2023-06-24T15:10:52;36.40;38.40
41924;DHT22;27613;48.116;11.656;2023-06-24T15:13:18;37.30;37.40
41924;DHT22;27613;48.116;11.656;2023-06-24T15:15:44;36.30;35.90
41924;DHT22;27613;48.116;11.656;2023-06-24T15:18:09;35.90;38.10
41924;DHT22;27613;48.116;11.656;2023-06-24T15:20:35;36.20;37.40
41924;DHT22;27613;48.116;11.656;2023-06-24T15:23:01;36.50;37.80
41924;DHT22;27613;48.116;11.656;2023-06-24T15:25:26;37.10;37.10
41924;DHT22;27613;48.116;11.656;2023-06-24T15:27:53;35.40;37.20
41924;DHT22;27613;48.116;11.656;2023-06-24T15:30:18;35.60;37.70